createdAt,value
2018-10-05T00:01:14.038Z,9.73
2018-10-05T00:03:57.933Z,12.50
2018-10-05T00:06:34.476Z,11.20
2018-10-05T00:14:10.492Z,10.80
2018-10-05T00:20:00.563Z,10.50
2018-10-05T00:22:44.704Z,11.10
2018-10-05T00:25:35.502Z,10.50
2018-10-05T00:28:25.573Z,11.18
2018-10-05T00:31:06.096Z,9.77
2018-10-05T00:33:44.329Z,10.10
2018-10-05T00:36:25.768Z,9.47
2018-10-05T00:39:09.102Z,10.00
2018-10-05T00:41:52.463Z,10.57
2018-10-05T00:44:54.568Z,10.18
2018-10-05T00:47:54.270Z,8.73
2018-10-05T00:50:36.611Z,9.40
2018-10-05T00:53:15.326Z,10.27
2018-10-05T00:56:17.813Z,10.90
2018-10-05T00:59:06.292Z,9.77
2018-10-05T01:01:48.661Z,10.10
2018-10-05T01:04:27.236Z,9.53
2018-10-05T01:07:11.122Z,7.97
2018-10-05T01:09:58.803Z,8.90
2018-10-05T01:12:36.644Z,7.50
2018-10-05T01:15:32.255Z,8.40
2018-10-05T01:18:12.263Z,7.73
2018-10-05T01:23:52.983Z,8.03
2018-10-05T01:26:35.432Z,9.45
2018-10-05T01:29:11.849Z,7.47
2018-10-05T01:32:03.627Z,7.20
2018-10-05T01:34:44.758Z,7.63
2018-10-05T01:37:31.334Z,7.67
2018-10-05T01:40:14.292Z,7.77
2018-10-05T01:43:03.960Z,7.60
2018-10-05T01:45:48.941Z,9.00
2018-10-05T01:48:30.727Z,7.77
2018-10-05T01:51:15.634Z,7.83
2018-10-05T01:53:55.594Z,7.17
2018-10-05T01:56:43.834Z,7.00
2018-10-05T01:59:24.980Z,7.47
2018-10-05T02:02:07.818Z,7.93
2018-10-05T02:04:48.836Z,7.93
2018-10-05T02:07:30.985Z,7.57
2018-10-05T02:10:14.839Z,7.80
2018-10-05T02:13:02.170Z,8.00
2018-10-05T02:15:46.977Z,7.57
2018-10-05T02:18:35.885Z,6.67
2018-10-05T02:21:17.137Z,6.60
2018-10-05T02:24:07.804Z,8.00
2018-10-05T02:26:47.093Z,8.30
2018-10-05T02:29:22.462Z,8.07
2018-10-05T02:32:00.594Z,6.47
2018-10-05T02:34:42.967Z,6.80
2018-10-05T02:37:17.243Z,8.27
2018-10-05T02:39:57.927Z,9.23
2018-10-05T02:42:47.438Z,9.37
2018-10-05T02:45:22.835Z,7.80
2018-10-05T02:48:00.647Z,7.73
2018-10-05T02:50:40.840Z,8.60
2018-10-05T02:53:24.158Z,7.62
2018-10-05T02:55:58.794Z,7.50
2018-10-05T02:58:51.165Z,7.43
2018-10-05T03:01:39.166Z,10.27
2018-10-05T03:04:22.746Z,7.40
2018-10-05T03:07:10.476Z,7.93
2018-10-05T03:09:46.848Z,7.27
2018-10-05T03:12:28.182Z,7.77
2018-10-05T03:15:09.145Z,8.20
2018-10-05T03:17:51.241Z,8.57
2018-10-05T03:23:41.072Z,8.80
2018-10-05T03:29:01.496Z,9.40
2018-10-05T03:35:02.914Z,8.30
2018-10-05T03:37:44.358Z,8.70
2018-10-05T03:40:31.602Z,9.43
2018-10-05T03:43:07.361Z,9.03
2018-10-05T03:45:57.319Z,7.70
2018-10-05T03:48:39.137Z,8.67
2018-10-05T03:51:12.704Z,8.07
2018-10-05T03:53:46.834Z,7.90
2018-10-05T03:56:25.942Z,14.07
2018-10-05T03:59:07.184Z,8.93
2018-10-05T04:01:48.319Z,10.13
2018-10-05T04:04:46.830Z,9.00
2018-10-05T04:07:35.426Z,9.87
2018-10-05T04:10:16.319Z,8.87
2018-10-05T04:13:16.767Z,9.00
2018-10-05T04:15:56.568Z,11.00
2018-10-05T04:18:53.698Z,8.97
2018-10-05T04:21:38.992Z,9.00
2018-10-05T04:24:34.643Z,7.00
2018-10-05T04:27:33.501Z,8.80
2018-10-05T04:30:16.158Z,8.77
2018-10-05T04:38:46.809Z,9.60
2018-10-05T04:41:28.107Z,10.23
2018-10-05T04:44:32.377Z,8.13
2018-10-05T04:47:17.871Z,9.90
2018-10-05T04:50:08.760Z,9.60
2018-10-05T04:53:06.011Z,8.67
2018-10-05T04:55:57.293Z,7.80
2018-10-05T04:58:36.388Z,8.27
2018-10-05T05:04:01.509Z,9.00
2018-10-05T05:06:44.080Z,8.27
2018-10-05T05:09:24.659Z,8.77
2018-10-05T05:12:02.153Z,9.50
2018-10-05T05:17:45.335Z,11.17
2018-10-05T05:20:40.523Z,10.07
2018-10-05T05:23:26.950Z,8.80
2018-10-05T05:26:17.656Z,10.00
2018-10-05T05:32:06.874Z,9.40
2018-10-05T05:34:56.836Z,12.13
2018-10-05T05:37:55.149Z,9.50
2018-10-05T05:40:44.778Z,11.00
2018-10-05T05:46:30.285Z,9.83
2018-10-05T05:49:13.104Z,9.90
2018-10-05T05:51:56.228Z,10.20
2018-10-05T05:54:41.497Z,8.73
2018-10-05T05:57:56.990Z,9.53
2018-10-05T06:00:35.704Z,9.03
2018-10-05T06:03:16.145Z,10.07
2018-10-05T06:06:19.406Z,12.20
2018-10-05T06:09:00.096Z,9.50
2018-10-05T06:11:40.346Z,9.67
2018-10-05T06:17:21.688Z,10.87
2018-10-05T06:20:15.819Z,10.60
2018-10-05T06:23:08.393Z,11.17
2018-10-05T06:25:54.532Z,11.60
2018-10-05T06:28:29.736Z,10.83
2018-10-05T06:31:27.536Z,13.17
2018-10-05T06:34:07.225Z,14.43
2018-10-05T06:37:39.635Z,17.07
2018-10-05T06:40:18.111Z,12.37
2018-10-05T06:46:04.879Z,9.73
2018-10-05T06:48:50.070Z,11.87
2018-10-05T06:51:32.785Z,13.70
2018-10-05T06:54:25.085Z,11.67
2018-10-05T07:00:12.203Z,10.73
2018-10-05T07:02:58.179Z,8.90
2018-10-05T07:05:46.113Z,6.20
2018-10-05T07:08:38.914Z,6.80
2018-10-05T07:11:25.915Z,6.40
2018-10-05T07:14:03.974Z,6.73
2018-10-05T07:16:58.949Z,6.90
2018-10-05T07:19:49.138Z,7.13
2018-10-05T07:22:49.849Z,6.10
2018-10-05T07:25:41.867Z,5.53
2018-10-05T07:28:35.643Z,6.37
2018-10-05T07:39:49.154Z,4.70
2018-10-05T07:50:55.128Z,4.90
2018-10-05T07:53:52.997Z,5.20
2018-10-05T07:59:21.584Z,5.10
2018-10-05T08:01:58.919Z,4.00
2018-10-05T08:04:50.751Z,5.10
2018-10-05T08:07:50.206Z,4.47
2018-10-05T08:10:50.683Z,5.10
2018-10-05T08:16:52.522Z,3.83
2018-10-05T08:25:21.843Z,4.57
2018-10-05T08:28:17.174Z,4.37
2018-10-05T08:31:09.754Z,4.30
2018-10-05T08:36:36.667Z,3.43
2018-10-05T08:42:35.003Z,3.80
2018-10-05T08:45:28.664Z,3.87
2018-10-05T08:48:29.716Z,4.72
2018-10-05T08:56:59.438Z,4.17
2018-10-05T09:02:37.061Z,3.20
2018-10-05T09:11:28.569Z,3.60
2018-10-05T09:14:13.841Z,3.90
2018-10-05T09:17:06.336Z,3.77
2018-10-05T09:23:09.244Z,3.10
2018-10-05T09:26:02.006Z,3.47
2018-10-05T09:28:40.218Z,4.90
2018-10-05T09:31:27.723Z,4.50
2018-10-05T09:34:16.277Z,3.30
2018-10-05T09:37:00.580Z,4.00
2018-10-05T09:39:56.051Z,3.40
2018-10-05T09:42:42.562Z,4.50
2018-10-05T09:45:35.723Z,4.60
2018-10-05T09:48:23.039Z,3.63
2018-10-05T10:01:03.182Z,3.73
2018-10-05T10:03:51.878Z,4.70
2018-10-05T10:09:23.969Z,3.60
2018-10-05T10:12:02.799Z,4.77
2018-10-05T10:22:42.803Z,3.87
2018-10-05T10:26:09.581Z,3.97
2018-10-05T10:29:07.734Z,4.50
2018-10-05T10:32:31.403Z,3.63
2018-10-05T10:35:42.814Z,3.43
2018-10-05T10:38:27.012Z,4.10
2018-10-05T10:41:35.890Z,4.40
2018-10-05T10:44:28.125Z,3.07
2018-10-05T10:52:25.966Z,2.93
2018-10-05T11:03:27.525Z,2.77
2018-10-05T11:12:51.883Z,7.25
2018-10-05T11:16:03.987Z,3.27
2018-10-05T11:18:50.697Z,4.13
2018-10-05T11:21:39.974Z,4.05
2018-10-05T11:29:28.828Z,2.80
2018-10-05T11:32:21.561Z,4.90
2018-10-05T11:38:11.462Z,3.73
2018-10-05T11:41:14.096Z,3.77
2018-10-05T11:43:59.729Z,2.63
2018-10-05T11:53:53.187Z,3.27
2018-10-05T11:56:36.229Z,3.13
2018-10-05T11:59:31.785Z,2.73
2018-10-05T12:02:18.086Z,3.77
2018-10-05T12:05:05.794Z,2.90
2018-10-05T12:08:00.857Z,2.70
2018-10-05T12:23:36.313Z,3.40
2018-10-05T12:26:25.006Z,3.15
2018-10-05T12:29:07.858Z,2.37
2018-10-05T12:32:03.160Z,5.50
2018-10-05T12:34:39.256Z,2.73
2018-10-05T12:40:31.619Z,2.80
2018-10-05T12:43:41.313Z,3.40
2018-10-05T12:46:31.613Z,2.60
2018-10-05T12:49:17.162Z,2.43
2018-10-05T12:55:25.111Z,2.83
2018-10-05T12:58:15.596Z,2.90
2018-10-05T13:01:14.132Z,2.57
2018-10-05T13:04:19.505Z,21.55
2018-10-05T13:07:04.158Z,2.33
2018-10-05T13:09:57.532Z,2.73
2018-10-05T13:12:47.330Z,3.07
2018-10-05T13:15:41.866Z,3.10
2018-10-05T13:18:50.500Z,1.83
2018-10-05T13:24:37.266Z,2.87
2018-10-05T13:27:54.143Z,2.40
2018-10-05T13:30:36.407Z,4.07
2018-10-05T13:33:27.278Z,2.90
2018-10-05T13:39:04.557Z,6.50
2018-10-05T13:41:53.220Z,2.93
2018-10-05T13:50:52.927Z,3.07
2018-10-05T13:53:40.597Z,2.13
2018-10-05T13:56:30.134Z,2.67
2018-10-05T14:15:08.590Z,2.77
2018-10-05T14:17:58.140Z,3.50
2018-10-05T14:23:55.158Z,2.10
2018-10-05T14:26:48.283Z,2.43
2018-10-05T14:29:34.815Z,2.33
2018-10-05T14:32:32.637Z,2.27
2018-10-05T14:38:36.348Z,1.93
2018-10-05T14:41:25.640Z,1.90
2018-10-05T14:44:11.091Z,2.40
2018-10-05T14:50:02.948Z,2.40
2018-10-05T14:52:37.006Z,5.30
2018-10-05T14:58:42.819Z,2.00
2018-10-05T15:02:17.932Z,2.67
2018-10-05T15:05:33.428Z,2.57
2018-10-05T15:25:37.131Z,1.87
2018-10-05T15:28:33.213Z,2.10
2018-10-05T15:31:31.685Z,2.93
2018-10-05T15:34:42.017Z,3.10
2018-10-05T15:48:45.057Z,3.47
2018-10-05T15:51:37.980Z,2.50
2018-10-05T16:55:25.516Z,7.23
2018-10-05T16:58:21.214Z,5.13
2018-10-05T17:13:41.168Z,3.40
2018-10-05T17:16:30.222Z,4.77
2018-10-05T17:19:28.410Z,3.95
2018-10-05T17:25:31.998Z,9.60
2018-10-05T17:28:25.496Z,9.87
2018-10-05T17:31:10.081Z,4.40
2018-10-05T17:34:12.785Z,4.60
2018-10-05T17:37:04.967Z,3.43
2018-10-05T17:39:43.679Z,3.77
2018-10-05T17:42:30.982Z,4.27
2018-10-05T17:45:32.747Z,3.60
2018-10-05T17:48:17.023Z,4.80
2018-10-05T17:59:48.889Z,5.23
2018-10-05T18:12:19.608Z,3.53
2018-10-05T18:15:11.005Z,3.67
2018-10-05T18:32:59.214Z,9.20
2018-10-05T18:42:11.048Z,15.93
2018-10-05T18:51:47.596Z,9.50
2018-10-05T18:55:10.906Z,8.70
2018-10-05T19:05:06.372Z,13.43
2018-10-05T19:08:08.479Z,11.47
2018-10-05T19:14:13.868Z,21.60
2018-10-05T19:16:57.061Z,22.00
2018-10-05T19:19:44.108Z,21.37
2018-10-05T19:22:30.667Z,13.80
2018-10-05T19:25:18.056Z,14.10
2018-10-05T19:34:01.181Z,11.00
2018-10-05T19:36:54.793Z,10.23
2018-10-05T19:42:48.456Z,6.30
2018-10-05T19:47:19.779Z,5.77
2018-10-05T19:50:13.203Z,5.20
2018-10-05T19:53:11.986Z,5.23
2018-10-05T20:04:22.500Z,4.40
2018-10-05T20:07:21.342Z,5.13
2018-10-05T20:10:28.196Z,9.27
2018-10-05T20:13:16.542Z,6.13
2018-10-05T20:19:20.060Z,7.63
2018-10-05T20:21:59.401Z,7.53
2018-10-05T20:32:49.724Z,5.60
2018-10-05T20:35:32.908Z,6.27
2018-10-05T20:38:35.717Z,8.53
2018-10-05T20:41:26.005Z,10.37
2018-10-05T20:44:16.368Z,6.33
2018-10-05T20:47:03.941Z,4.93
2018-10-05T20:49:50.881Z,4.90
2018-10-05T20:57:33.708Z,5.27
2018-10-05T21:00:32.429Z,4.28
2018-10-05T21:03:33.042Z,5.33
2018-10-05T21:06:24.177Z,4.47
2018-10-05T21:09:14.651Z,5.60
2018-10-05T21:11:53.714Z,4.50
2018-10-05T21:14:36.455Z,4.57
2018-10-05T21:17:18.976Z,5.03
2018-10-05T21:20:01.934Z,5.33
2018-10-05T21:22:50.612Z,5.00
2018-10-05T21:25:46.249Z,5.33
2018-10-05T21:28:32.732Z,5.60
2018-10-05T21:31:15.120Z,5.80
2018-10-05T21:33:55.010Z,6.53
2018-10-05T21:36:40.693Z,5.87
2018-10-05T21:39:30.405Z,5.80
2018-10-05T21:42:34.534Z,6.10
2018-10-05T21:45:33.626Z,6.20
2018-10-05T21:48:25.217Z,5.30
2018-10-05T21:51:13.939Z,6.33
2018-10-05T21:53:56.921Z,6.13
2018-10-05T21:56:50.999Z,5.50
2018-10-05T22:02:39.483Z,5.70
2018-10-05T22:05:29.185Z,6.20
2018-10-05T22:11:27.616Z,5.73
2018-10-05T22:14:30.563Z,6.10
2018-10-05T22:17:46.396Z,6.27
2018-10-05T22:25:30.302Z,6.33
2018-10-05T22:28:20.854Z,7.90
2018-10-05T22:31:07.670Z,7.87
2018-10-05T22:34:02.116Z,6.03
2018-10-05T22:36:45.512Z,6.70
2018-10-05T22:39:27.469Z,7.47
2018-10-05T22:42:14.137Z,7.47
2018-10-05T23:38:41.689Z,8.70
2018-10-05T23:44:20.184Z,8.63
2018-10-05T23:47:03.183Z,8.87
2018-10-05T23:49:35.238Z,8.73
2018-10-05T23:52:56.331Z,9.47
2018-10-05T23:55:40.574Z,10.33
2018-10-05T23:58:17.488Z,8.80
